createdAt,value
2017-11-10T00:01:04.336Z,40.85
2017-11-10T00:03:32.703Z,41.63
2017-11-10T00:06:01.106Z,39.05
2017-11-10T00:08:29.479Z,40.85
2017-11-10T00:10:58.051Z,41.25
2017-11-10T00:13:26.423Z,34.17
2017-11-10T00:15:54.800Z,37.92
2017-11-10T00:18:23.187Z,35.97
2017-11-10T00:20:51.560Z,34.70
2017-11-10T00:23:20.262Z,38.97
2017-11-10T00:25:48.629Z,36.88
2017-11-10T00:28:16.995Z,39.10
2017-11-10T00:30:45.388Z,37.25
2017-11-10T00:33:13.770Z,33.35
2017-11-10T00:35:42.171Z,46.45
2017-11-10T00:38:10.637Z,41.90
2017-11-10T00:40:39.014Z,39.15
2017-11-10T00:43:07.418Z,41.42
2017-11-10T00:45:35.787Z,42.53
2017-11-10T00:48:04.549Z,41.45
2017-11-10T00:50:32.928Z,44.58
2017-11-10T00:53:01.310Z,45.33
2017-11-10T00:55:29.707Z,46.33
2017-11-10T00:57:58.083Z,39.70
2017-11-10T01:00:26.584Z,43.78
2017-11-10T01:02:55.756Z,38.50
2017-11-10T01:05:24.131Z,37.65
2017-11-10T01:10:48.523Z,35.15
2017-11-10T01:13:16.914Z,35.47
2017-11-10T01:15:45.274Z,36.40
2017-11-10T01:18:13.644Z,44.20
2017-11-10T01:20:42.108Z,36.92
2017-11-10T01:23:11.240Z,35.90
2017-11-10T01:25:39.628Z,36.28
2017-11-10T01:28:08.027Z,35.72
2017-11-10T01:30:36.463Z,32.53
2017-11-10T01:33:04.862Z,45.92
2017-11-10T01:35:33.227Z,47.03
2017-11-10T01:38:02.033Z,34.05
2017-11-10T01:40:30.437Z,39.90
2017-11-10T01:42:58.808Z,39.70
2017-11-10T01:45:27.266Z,34.10
2017-11-10T01:48:15.402Z,37.85
2017-11-10T01:50:43.904Z,37.72
2017-11-10T01:53:12.302Z,40.60
2017-11-10T01:55:40.679Z,39.42
2017-11-10T01:58:09.065Z,42.35
2017-11-10T02:00:37.509Z,38.75
2017-11-10T02:03:06.279Z,39.33
2017-11-10T02:05:34.646Z,38.08
2017-11-10T02:08:03.015Z,32.00
2017-11-10T02:10:31.405Z,40.38
2017-11-10T02:12:59.775Z,39.90
2017-11-10T02:15:28.372Z,38.67
2017-11-10T02:17:56.752Z,41.05
2017-11-10T02:20:25.136Z,40.72
2017-11-10T02:22:53.626Z,42.97
2017-11-10T02:25:22.019Z,38.47
2017-11-10T02:27:50.606Z,32.05
2017-11-10T02:30:18.972Z,38.63
2017-11-10T02:32:47.368Z,32.60
2017-11-10T02:35:15.787Z,35.58
2017-11-10T02:37:44.177Z,34.22
2017-11-10T02:40:12.600Z,35.83
2017-11-10T02:42:40.999Z,33.67
2017-11-10T02:45:09.382Z,35.70
2017-11-10T02:47:38.557Z,34.22
2017-11-10T02:50:07.003Z,31.37
2017-11-10T02:52:35.465Z,32.22
2017-11-10T02:55:03.863Z,34.65
2017-11-10T02:57:32.237Z,34.80
2017-11-10T03:00:00.632Z,32.85
2017-11-10T03:02:29.000Z,32.97
2017-11-10T03:04:57.500Z,33.60
2017-11-10T03:07:25.874Z,34.58
2017-11-10T03:09:54.252Z,37.35
2017-11-10T03:12:22.656Z,34.97
2017-11-10T03:14:51.040Z,33.47
2017-11-10T03:17:19.547Z,35.05
2017-11-10T03:19:47.922Z,33.13
2017-11-10T03:22:17.056Z,36.67
2017-11-10T03:24:45.451Z,33.55
2017-11-10T03:27:13.851Z,33.35
2017-11-10T03:29:42.403Z,33.35
2017-11-10T03:32:10.777Z,31.10
2017-11-10T03:34:39.149Z,32.35
2017-11-10T03:37:07.558Z,29.80
2017-11-10T03:39:35.928Z,33.83
2017-11-10T03:42:04.341Z,30.00
2017-11-10T03:44:33.477Z,31.17
2017-11-10T03:47:01.855Z,26.02
2017-11-10T03:49:30.260Z,32.75
2017-11-10T03:51:58.631Z,30.88
2017-11-10T03:54:27.148Z,31.12
2017-11-10T03:56:55.525Z,31.00
2017-11-10T03:59:23.908Z,31.33
2017-11-10T04:01:53.160Z,37.50
2017-11-10T04:04:21.531Z,34.05
2017-11-10T04:06:50.481Z,30.62
2017-11-10T04:09:19.615Z,31.27
2017-11-10T04:11:47.988Z,34.65
2017-11-10T04:14:16.377Z,30.27
2017-11-10T04:16:44.747Z,27.27
2017-11-10T04:19:13.443Z,33.38
2017-11-10T04:21:41.808Z,26.48
2017-11-10T04:24:10.186Z,33.38
2017-11-10T04:26:38.596Z,30.67
2017-11-10T04:29:06.970Z,30.42
2017-11-10T04:31:35.516Z,29.00
2017-11-10T04:34:03.895Z,28.42
2017-11-10T04:36:32.272Z,30.23
2017-11-10T04:39:00.672Z,35.13
2017-11-10T04:41:29.037Z,30.20
2017-11-10T04:43:57.455Z,32.75
2017-11-10T04:46:25.826Z,35.47
2017-11-10T04:48:54.197Z,31.52
2017-11-10T04:51:22.591Z,29.35
2017-11-10T04:53:50.963Z,30.12
2017-11-10T04:56:19.376Z,29.37
2017-11-10T04:58:48.516Z,26.15
2017-11-10T05:01:16.888Z,28.20
2017-11-10T05:03:45.275Z,28.50
2017-11-10T05:06:13.645Z,31.17
2017-11-10T05:08:42.442Z,30.00
2017-11-10T05:11:10.831Z,30.02
2017-11-10T05:13:39.216Z,26.42
2017-11-10T05:16:07.607Z,28.70
2017-11-10T05:18:35.979Z,29.92
2017-11-10T05:21:04.392Z,26.35
2017-11-10T05:23:33.527Z,30.62
2017-11-10T05:26:01.903Z,24.75
2017-11-10T05:28:30.295Z,25.88
2017-11-10T05:30:58.688Z,28.90
2017-11-10T05:33:27.478Z,28.87
2017-11-10T05:35:55.948Z,28.02
2017-11-10T05:38:24.326Z,28.55
2017-11-10T05:40:52.736Z,30.42
2017-11-10T05:43:21.119Z,28.77
2017-11-10T05:45:49.527Z,28.83
2017-11-10T05:48:17.922Z,25.95
2017-11-10T05:50:46.314Z,30.75
2017-11-10T05:53:14.714Z,34.90
2017-11-10T05:55:43.099Z,33.58
2017-11-10T05:58:11.683Z,31.45
2017-11-10T06:00:40.131Z,31.20
2017-11-10T06:03:08.529Z,31.27
2017-11-10T06:05:36.936Z,26.83
2017-11-10T06:08:05.309Z,28.45
2017-11-10T06:10:33.733Z,28.48
2017-11-10T06:13:02.100Z,30.00
2017-11-10T06:15:30.511Z,30.20
2017-11-10T06:17:58.924Z,31.25
2017-11-10T06:20:27.292Z,29.80
2017-11-10T06:22:55.808Z,31.55
2017-11-10T06:25:24.999Z,35.28
2017-11-10T06:27:54.133Z,32.15
2017-11-10T06:30:22.531Z,30.02
2017-11-10T06:32:50.900Z,32.80
2017-11-10T06:35:19.413Z,27.42
2017-11-10T06:37:47.781Z,32.70
2017-11-10T06:40:16.159Z,30.83
2017-11-10T06:42:44.555Z,27.95
2017-11-10T06:45:12.929Z,37.38
2017-11-10T06:47:41.351Z,34.50
2017-11-10T06:50:09.799Z,31.17
2017-11-10T06:52:38.932Z,33.05
2017-11-10T06:55:07.336Z,31.77
2017-11-10T06:57:35.712Z,27.20
2017-11-10T07:00:04.236Z,27.75
2017-11-10T07:02:33.374Z,30.12
2017-11-10T07:05:01.748Z,44.50
2017-11-10T07:07:30.204Z,31.95
2017-11-10T07:09:58.627Z,39.95
2017-11-10T07:12:27.067Z,32.72
2017-11-10T07:14:55.437Z,30.12
2017-11-10T07:17:24.592Z,33.80
2017-11-10T07:19:52.988Z,34.95
2017-11-10T07:22:21.367Z,32.10
2017-11-10T07:24:50.008Z,32.60
2017-11-10T07:27:18.367Z,31.23
2017-11-10T07:29:46.776Z,32.90
2017-11-10T07:32:15.177Z,37.03
2017-11-10T07:34:43.558Z,38.95
2017-11-10T07:37:12.116Z,34.55
2017-11-10T07:39:40.495Z,36.95
2017-11-10T07:42:08.864Z,38.10
2017-11-10T07:44:37.272Z,40.78
2017-11-10T07:47:05.673Z,45.72
2017-11-10T07:49:35.025Z,49.58
2017-11-10T07:52:03.394Z,38.88
2017-11-10T07:54:31.760Z,44.15
2017-11-10T07:57:00.355Z,34.25
2017-11-10T07:59:28.732Z,43.38
2017-11-10T08:01:57.538Z,40.50
2017-11-10T08:04:25.908Z,35.67
2017-11-10T08:06:54.276Z,37.10
2017-11-10T08:09:22.680Z,33.97
2017-11-10T08:11:51.059Z,30.35
2017-11-10T08:14:19.561Z,39.42
2017-11-10T08:16:47.944Z,37.95
2017-11-10T08:19:16.315Z,33.47
2017-11-10T08:21:44.708Z,34.08
2017-11-10T08:24:13.081Z,32.40
2017-11-10T08:26:41.525Z,34.40
2017-11-10T08:29:09.905Z,31.00
2017-11-10T08:31:38.283Z,36.38
2017-11-10T08:34:06.689Z,29.33
2017-11-10T08:36:35.072Z,31.35
2017-11-10T08:39:03.819Z,30.90
2017-11-10T08:41:32.199Z,29.98
2017-11-10T08:44:00.563Z,28.62
2017-11-10T08:46:28.956Z,34.05
2017-11-10T08:48:57.343Z,31.37
2017-11-10T08:51:25.774Z,31.83
2017-11-10T08:53:54.910Z,28.87
2017-11-10T08:56:23.297Z,28.40
2017-11-10T08:58:51.696Z,28.95
2017-11-10T09:01:20.073Z,40.20
2017-11-10T09:03:48.503Z,34.05
2017-11-10T09:06:16.867Z,31.40
2017-11-10T09:08:46.012Z,34.03
2017-11-10T09:11:14.584Z,29.12
2017-11-10T09:13:42.951Z,31.77
2017-11-10T09:16:11.324Z,38.45
2017-11-10T09:18:39.724Z,35.78
2017-11-10T09:21:08.096Z,30.27
2017-11-10T09:23:36.580Z,33.25
2017-11-10T09:26:05.013Z,31.55
2017-11-10T09:31:52.831Z,35.97
2017-11-10T09:34:26.804Z,28.40
2017-11-10T09:37:00.648Z,28.48
2017-11-10T09:39:46.880Z,34.80
2017-11-10T09:42:19.376Z,32.30
2017-11-10T09:47:57.227Z,35.00
2017-11-10T09:53:27.429Z,33.78
2017-11-10T09:59:12.003Z,28.45
2017-11-10T10:01:46.423Z,26.75
2017-11-10T10:04:20.365Z,30.15
2017-11-10T10:10:08.435Z,28.55
2017-11-10T10:12:42.407Z,29.55
2017-11-10T10:15:16.306Z,30.42
2017-11-10T10:17:50.896Z,32.67
2017-11-10T10:20:24.885Z,32.47
2017-11-10T10:22:56.696Z,32.42
2017-11-10T10:25:25.858Z,30.70
2017-11-10T10:27:54.234Z,31.25
2017-11-10T10:30:22.641Z,33.53
2017-11-10T10:32:51.800Z,26.33
2017-11-10T10:35:20.180Z,28.10
2017-11-10T10:37:48.589Z,29.80
2017-11-10T10:40:17.744Z,28.90
2017-11-10T10:42:46.175Z,25.12
2017-11-10T10:45:15.313Z,25.55
2017-11-10T10:47:43.759Z,25.15
2017-11-10T10:50:12.967Z,30.33
2017-11-10T10:52:41.349Z,30.35
2017-11-10T10:55:09.841Z,23.73
2017-11-10T10:57:38.228Z,25.40
2017-11-10T11:00:06.608Z,25.90
2017-11-10T11:02:35.043Z,26.37
2017-11-10T11:05:04.182Z,26.33
2017-11-10T11:07:32.980Z,24.83
2017-11-10T11:10:01.364Z,25.02
2017-11-10T11:12:29.730Z,27.92
2017-11-10T11:14:58.131Z,25.60
2017-11-10T11:17:26.500Z,23.55
2017-11-10T11:19:55.016Z,26.90
2017-11-10T11:22:23.458Z,27.40
2017-11-10T11:24:51.829Z,31.33
2017-11-10T11:27:20.224Z,25.60
2017-11-10T11:29:48.600Z,25.48
2017-11-10T11:32:17.033Z,27.30
2017-11-10T11:34:46.169Z,25.88
2017-11-10T11:37:14.556Z,28.55
2017-11-10T11:39:42.951Z,30.35
2017-11-10T11:42:11.320Z,26.83
2017-11-10T11:44:40.092Z,24.00
2017-11-10T11:47:08.460Z,28.58
2017-11-10T11:49:36.845Z,28.70
2017-11-10T11:52:05.247Z,36.85
2017-11-10T11:54:33.612Z,29.37
2017-11-10T11:57:02.179Z,29.73
2017-11-10T11:59:30.544Z,28.55
2017-11-10T12:01:58.916Z,27.65
2017-11-10T12:04:27.477Z,33.92
2017-11-10T12:06:55.850Z,33.42
2017-11-10T12:09:25.508Z,29.52
2017-11-10T12:11:53.883Z,32.85
2017-11-10T12:14:22.275Z,32.50
2017-11-10T12:16:50.705Z,31.05
2017-11-10T12:19:19.090Z,35.65
2017-11-10T12:21:47.715Z,28.65
2017-11-10T12:24:16.115Z,33.55
2017-11-10T12:26:44.577Z,31.73
2017-11-10T12:29:12.980Z,29.45
2017-11-10T12:31:41.349Z,33.65
2017-11-10T12:34:09.967Z,29.85
2017-11-10T12:36:39.114Z,29.02
2017-11-10T12:39:07.497Z,33.90
2017-11-10T12:41:35.911Z,32.67
2017-11-10T12:44:05.043Z,32.92
2017-11-10T12:46:33.601Z,33.65
2017-11-10T12:49:02.754Z,29.50
2017-11-10T12:51:31.135Z,29.60
2017-11-10T12:53:59.577Z,30.02
2017-11-10T12:56:27.943Z,30.98
2017-11-10T12:58:56.438Z,30.77
2017-11-10T13:01:24.825Z,32.20
2017-11-10T13:03:53.207Z,32.40
2017-11-10T13:06:21.608Z,32.10
2017-11-10T13:08:49.994Z,39.65
2017-11-10T13:11:18.570Z,34.33
2017-11-10T13:13:46.959Z,31.70
2017-11-10T13:16:15.328Z,34.30
2017-11-10T13:18:43.796Z,32.83
2017-11-10T13:21:12.185Z,35.80
2017-11-10T13:23:40.695Z,33.70
2017-11-10T13:26:09.066Z,33.35
2017-11-10T13:28:37.644Z,34.22
2017-11-10T13:31:06.632Z,34.40
2017-11-10T13:33:35.005Z,32.83
2017-11-10T13:36:03.673Z,46.65
2017-11-10T13:38:32.055Z,37.15
2017-11-10T13:41:00.424Z,37.80
2017-11-10T13:43:28.814Z,37.80
2017-11-10T13:45:57.292Z,36.70
2017-11-10T13:48:25.712Z,38.60
2017-11-10T13:50:54.862Z,37.47
2017-11-10T13:53:23.245Z,34.65
2017-11-10T13:55:51.695Z,32.17
2017-11-10T13:58:20.069Z,37.58
2017-11-10T14:00:48.484Z,36.55
2017-11-10T14:03:16.856Z,41.42
2017-11-10T14:05:45.223Z,40.38
2017-11-10T14:08:13.607Z,39.95
2017-11-10T14:10:41.984Z,34.65
2017-11-10T14:13:10.488Z,34.03
2017-11-10T14:15:38.870Z,36.35
2017-11-10T14:18:07.252Z,38.53
2017-11-10T14:20:35.651Z,37.55
2017-11-10T14:23:04.094Z,36.00
2017-11-10T14:25:32.668Z,44.00
2017-11-10T14:28:01.050Z,34.60
2017-11-10T14:30:29.436Z,38.97
2017-11-10T14:32:57.961Z,34.78
2017-11-10T14:35:26.351Z,46.72
2017-11-10T14:37:56.575Z,44.97
2017-11-10T14:40:25.250Z,36.53
2017-11-10T14:42:54.090Z,36.80
2017-11-10T14:45:22.877Z,38.60
2017-11-10T14:47:51.492Z,37.53
2017-11-10T14:50:20.129Z,42.35
2017-11-10T14:52:48.933Z,40.05
2017-11-10T14:55:17.312Z,38.03
2017-11-10T14:57:45.709Z,39.78
2017-11-10T15:00:14.084Z,33.83
2017-11-10T15:02:42.499Z,39.53
2017-11-10T15:05:11.640Z,39.22
2017-11-10T15:07:40.329Z,29.95
2017-11-10T15:10:09.669Z,31.90
2017-11-10T15:12:38.806Z,31.52
2017-11-10T15:15:07.224Z,37.67
2017-11-10T15:17:35.619Z,34.10
2017-11-10T15:20:04.006Z,37.53
2017-11-10T15:22:33.733Z,40.78
2017-11-10T15:25:02.128Z,32.78
2017-11-10T15:27:30.657Z,38.28
2017-11-10T15:29:59.060Z,33.10
2017-11-10T15:32:28.209Z,35.83
2017-11-10T15:34:56.623Z,37.70
2017-11-10T15:37:24.993Z,30.45
2017-11-10T15:39:53.844Z,37.55
2017-11-10T15:42:22.252Z,43.53
2017-11-10T15:44:50.636Z,37.70
2017-11-10T15:47:19.045Z,35.67
2017-11-10T15:49:48.280Z,30.90
2017-11-10T15:52:18.212Z,39.67
2017-11-10T15:54:46.601Z,30.58
2017-11-10T15:57:16.513Z,35.55
2017-11-10T15:59:46.047Z,31.83
2017-11-10T16:02:15.435Z,32.13
2017-11-10T16:04:44.754Z,31.95
2017-11-10T16:07:13.983Z,30.65
2017-11-10T16:09:42.732Z,29.20
2017-11-10T16:12:11.319Z,29.90
2017-11-10T16:14:40.672Z,36.50
2017-11-10T16:17:09.454Z,27.25
2017-11-10T16:19:37.830Z,28.85
2017-11-10T16:22:06.203Z,25.20
2017-11-10T16:24:34.610Z,27.75
2017-11-10T16:27:02.985Z,27.45
2017-11-10T16:29:31.595Z,33.50
2017-11-10T16:31:59.964Z,23.33
2017-11-10T16:34:28.330Z,26.23
2017-11-10T16:36:57.497Z,28.10
2017-11-10T16:39:25.891Z,26.12
2017-11-10T16:41:54.600Z,23.67
2017-11-10T16:44:22.983Z,24.98
2017-11-10T16:46:51.415Z,25.60
2017-11-10T16:49:19.825Z,31.55
2017-11-10T16:51:48.200Z,25.30
2017-11-10T16:54:16.780Z,27.60
2017-11-10T16:56:45.152Z,30.85
2017-11-10T16:59:13.533Z,32.40
2017-11-10T17:01:41.975Z,29.12
2017-11-10T17:04:10.362Z,24.37
2017-11-10T17:06:38.786Z,22.27
2017-11-10T17:09:07.160Z,21.23
2017-11-10T17:11:36.312Z,19.87
2017-11-10T17:14:04.735Z,23.23
2017-11-10T17:16:33.212Z,22.40
2017-11-10T17:19:02.562Z,19.25
2017-11-10T17:21:31.915Z,15.80
2017-11-10T17:24:01.088Z,21.35
2017-11-10T17:26:29.592Z,20.15
2017-11-10T17:28:57.981Z,20.33
2017-11-10T17:31:26.500Z,24.40
2017-11-10T17:33:55.684Z,20.73
2017-11-10T17:36:24.825Z,23.27
2017-11-10T17:38:53.296Z,19.20
2017-11-10T17:41:21.955Z,19.20
2017-11-10T17:43:51.378Z,20.95
2017-11-10T17:46:19.844Z,19.98
2017-11-10T17:48:49.018Z,19.85
2017-11-10T17:51:17.424Z,17.15
2017-11-10T17:53:46.596Z,20.48
2017-11-10T17:56:15.480Z,19.27
2017-11-10T17:58:44.685Z,20.75
2017-11-10T18:01:13.366Z,17.80
2017-11-10T18:03:41.813Z,20.40
2017-11-10T18:06:10.384Z,18.62
2017-11-10T18:08:38.900Z,15.52
2017-11-10T18:11:08.084Z,16.52
2017-11-10T18:13:36.553Z,22.65
2017-11-10T18:16:05.003Z,18.12
2017-11-10T18:18:33.416Z,22.65
2017-11-10T18:21:02.013Z,20.20
2017-11-10T18:23:30.436Z,24.75
2017-11-10T18:25:59.713Z,17.65
2017-11-10T18:28:28.380Z,18.45
2017-11-10T18:30:57.543Z,17.55
2017-11-10T18:33:26.349Z,16.23
2017-11-10T18:35:54.749Z,19.30
2017-11-10T18:38:23.145Z,20.02
2017-11-10T18:40:51.825Z,17.00
2017-11-10T18:43:20.403Z,16.45
2017-11-10T18:45:49.694Z,15.30
2017-11-10T18:48:24.224Z,17.75
2017-11-10T18:50:52.951Z,17.20
2017-11-10T18:53:26.171Z,15.95
2017-11-10T18:55:54.717Z,15.40
2017-11-10T18:58:23.175Z,22.33
2017-11-10T19:00:51.567Z,16.27
2017-11-10T19:03:20.787Z,15.32
2017-11-10T19:05:49.276Z,16.95
2017-11-10T19:08:17.804Z,14.57
2017-11-10T19:10:46.482Z,13.52
2017-11-10T19:13:15.243Z,12.73
2017-11-10T19:15:43.870Z,14.02
2017-11-10T19:18:13.409Z,9.63
2017-11-10T19:20:42.137Z,12.82
2017-11-10T19:23:10.557Z,12.15
2017-11-10T19:25:39.744Z,13.30
2017-11-10T19:28:08.180Z,14.23
2017-11-10T19:30:36.824Z,12.40
2017-11-10T19:33:06.359Z,10.80
2017-11-10T19:35:34.747Z,13.65
2017-11-10T19:38:03.168Z,11.30
2017-11-10T19:40:31.675Z,8.75
2017-11-10T19:43:00.084Z,11.32
2017-11-10T19:45:28.755Z,10.13
2017-11-10T19:47:57.357Z,9.48
2017-11-10T19:50:25.955Z,11.02
2017-11-10T19:52:55.167Z,11.32
2017-11-10T19:55:23.667Z,8.57
2017-11-10T19:57:52.798Z,10.25
2017-11-10T20:00:21.516Z,8.05
2017-11-10T20:02:50.006Z,8.40
2017-11-10T20:05:18.371Z,14.27
2017-11-10T20:07:46.867Z,8.35
2017-11-10T20:10:15.431Z,11.50
2017-11-10T20:12:44.298Z,8.25
2017-11-10T20:15:12.703Z,8.48
2017-11-10T20:17:41.078Z,9.25
2017-11-10T20:20:09.560Z,11.95
2017-11-10T20:22:37.979Z,12.30
2017-11-10T20:25:06.525Z,9.18
2017-11-10T20:27:35.148Z,9.75
2017-11-10T20:30:04.311Z,8.80
2017-11-10T20:32:32.927Z,8.75
2017-11-10T20:35:02.274Z,8.02
2017-11-10T20:37:30.811Z,8.60
2017-11-10T20:40:00.194Z,10.20
2017-11-10T20:42:29.409Z,9.35
2017-11-10T20:45:00.078Z,9.05
2017-11-10T20:47:28.816Z,8.23
2017-11-10T20:49:57.296Z,12.35
2017-11-10T20:52:26.688Z,10.23
2017-11-10T20:54:55.856Z,13.30
2017-11-10T20:57:24.598Z,8.07
2017-11-10T20:59:53.007Z,10.20
2017-11-10T21:02:21.820Z,9.15
2017-11-10T21:04:50.550Z,12.90
2017-11-10T21:07:19.410Z,13.38
2017-11-10T21:09:48.261Z,12.27
2017-11-10T21:12:16.974Z,8.80
2017-11-10T21:14:46.805Z,8.65
2017-11-10T21:17:15.579Z,7.37
2017-11-10T21:19:45.978Z,10.73
2017-11-10T21:22:14.742Z,9.15
2017-11-10T21:24:43.464Z,8.20
2017-11-10T21:27:11.942Z,9.98
2017-11-10T21:29:40.360Z,8.02
2017-11-10T21:32:09.321Z,9.07
2017-11-10T21:34:37.807Z,14.30
2017-11-10T21:37:06.440Z,13.25
2017-11-10T21:39:34.849Z,11.05
2017-11-10T21:42:03.435Z,9.70
2017-11-10T21:44:31.964Z,8.25
2017-11-10T21:47:00.548Z,11.10
2017-11-10T21:49:30.156Z,12.75
2017-11-10T21:51:59.035Z,8.13
2017-11-10T21:54:27.912Z,9.65
2017-11-10T21:56:56.376Z,7.50
2017-11-10T21:59:24.781Z,8.25
2017-11-10T22:01:53.146Z,7.90
2017-11-10T22:04:22.028Z,9.93
2017-11-10T22:06:50.463Z,7.80
2017-11-10T22:09:19.688Z,8.57
2017-11-10T22:11:48.072Z,7.32
2017-11-10T22:14:16.434Z,8.55
2017-11-10T22:16:44.825Z,9.15
2017-11-10T22:19:13.191Z,8.85
2017-11-10T22:21:41.636Z,8.00
2017-11-10T22:24:10.017Z,10.05
2017-11-10T22:26:39.144Z,8.52
2017-11-10T22:29:07.526Z,12.23
2017-11-10T22:31:35.895Z,12.65
2017-11-10T22:34:04.312Z,8.32
2017-11-10T22:36:32.673Z,9.88
2017-11-10T22:39:01.042Z,11.27
2017-11-10T22:41:29.427Z,8.85
2017-11-10T22:43:57.788Z,7.70
2017-11-10T22:46:26.511Z,15.50
2017-11-10T22:48:54.878Z,10.93
2017-11-10T22:51:23.268Z,13.10
2017-11-10T22:53:51.662Z,12.07
2017-11-10T22:56:20.027Z,14.77
2017-11-10T22:58:48.550Z,10.82
2017-11-10T23:01:17.688Z,18.98
2017-11-10T23:03:46.060Z,12.80
2017-11-10T23:06:14.457Z,14.55
2017-11-10T23:08:42.832Z,18.73
2017-11-10T23:11:11.322Z,25.75
2017-11-10T23:13:39.802Z,18.40
2017-11-10T23:16:08.177Z,17.87
2017-11-10T23:18:36.572Z,18.12
2017-11-10T23:21:05.053Z,18.85
2017-11-10T23:23:33.695Z,22.23
2017-11-10T23:26:02.080Z,22.20
2017-11-10T23:28:30.450Z,22.67
2017-11-10T23:30:58.963Z,21.62
2017-11-10T23:33:27.330Z,22.70
2017-11-10T23:35:55.912Z,23.67
2017-11-10T23:38:24.284Z,24.87
2017-11-10T23:40:52.662Z,23.80
2017-11-10T23:43:21.101Z,25.88
2017-11-10T23:45:50.239Z,27.55
2017-11-10T23:48:18.772Z,25.05
2017-11-10T23:50:47.149Z,28.42
2017-11-10T23:53:15.518Z,25.33
2017-11-10T23:55:43.916Z,21.17
2017-11-10T23:58:13.052Z,23.20
